Aérodrome :
LOGIN :

S'inscrire | Disclaimer

   EN    FR    IT 

 










Légende :    VFR   VFR Marginal   IFR   IFR Intensif   IFR Très Intensif
Visi : 
Plafond : 
>= 8 km
>= 3000ft
5 à 8 km
1000 à 3000 ft
1500m à 5 km
500 à 1000 ft
800 à 1500m
200 à 500 ft
< 800m
< 200 ft
Symboles :   Orages  Brouillard  Fortes neiges  Fortes précipitations  Vent > 20 kt
SIGMETs :   Divers  Orages  Givrage  Turbulence  Onde Orograph.  Cendres Volcan.







- Altitude de l'aérodrome : 665 ft
- Code IATA : NOC


EIKN - Connaught / Knock- Ireland West

METARs EXPIRÉS :
  • 221800Z 33010KT 290V360 9999 SCT026 BKN050 17/11 Q1008 NOSIG
  • 221730Z 33011KT 9999 SCT026 BKN050 18/12 Q1008 NOSIG

TAF TAF EIKN
Valide du 22 à 18h jusqu'au 23 à 18h UTC


221700Z 2218/2318 34008KT 9999 SCT020 BKN040
BECMG 2218/2221 31006KT
BECMG 2223/2302 3000 BR -DZ BKN005
TEMPO 2301/2308 0300 FG BKN001
BECMG 2307/2310 35010KT 9999 NSW SCT020 BKN030
Pas de NOTAMs connus pour ce terrain.



MET'MAP, la Météo Aéronautique d'un coup d'oeil ! - Copyright ORBIFLY Décembre 2007 - Disclaimer

ORBIFLY MET'MAP TEAM :

Programmation & Développement : Alexandra Zaïnal
Conception & Développement : Baudouin d'Aumeries
Co-Programmation & Développement : Marc-Olivier Méhu
Soutien technique & logistique : Manuel Goepfert

Contact : metmap@orbifly.com




SOURCES & CREDITS :

   NOAA